sensor_id;sensor_type;location;lat;lon;timestamp;temperature;humidity
25536;DHT22;13431;51.352;6.412;2023-08-08T00:01:55;21.30;99.90
25536;DHT22;13431;51.352;6.412;2023-08-08T00:04:23;21.30;99.90
25536;DHT22;13431;51.352;6.412;2023-08-08T00:06:50;21.30;99.90
25536;DHT22;13431;51.352;6.412;2023-08-08T00:09:17;21.30;99.90
25536;DHT22;13431;51.352;6.412;2023-08-08T00:11:45;21.20;99.90
25536;DHT22;13431;51.352;6.412;2023-08-08T00:14:12;21.20;99.90
25536;DHT22;13431;51.352;6.412;2023-08-08T00:16:39;21.20;99.90
25536;DHT22;13431;51.352;6.412;2023-08-08T00:19:07;21.20;99.90
25536;DHT22;13431;51.352;6.412;2023-08-08T00:21:34;21.20;99.90
25536;DHT22;13431;51.352;6.412;2023-08-08T00:24:01;21.10;99.90
25536;DHT22;13431;51.352;6.412;2023-08-08T00:26:29;21.10;99.90
25536;DHT22;13431;51.352;6.412;2023-08-08T00:28:56;21.10;99.90
25536;DHT22;13431;51.352;6.412;2023-08-08T00:31:24;21.10;99.90
25536;DHT22;13431;51.352;6.412;2023-08-08T00:33:52;21.10;99.90
25536;DHT22;13431;51.352;6.412;2023-08-08T00:36:19;21.10;99.90
25536;DHT22;13431;51.352;6.412;2023-08-08T00:38:46;21.10;99.90
25536;DHT22;13431;51.352;6.412;2023-08-08T00:41:13;21.10;99.90
25536;DHT22;13431;51.352;6.412;2023-08-08T00:43:41;21.10;99.90
25536;DHT22;13431;51.352;6.412;2023-08-08T00:46:10;21.00;99.90
25536;DHT22;13431;51.352;6.412;2023-08-08T00:48:38;21.00;99.90
25536;DHT22;13431;51.352;6.412;2023-08-08T00:51:05;21.00;99.90
25536;DHT22;13431;51.352;6.412;2023-08-08T00:53:33;21.00;99.90
25536;DHT22;13431;51.352;6.412;2023-08-08T00:56:00;21.00;99.90
25536;DHT22;13431;51.352;6.412;2023-08-08T00:58:27;21.00;99.90
25536;DHT22;13431;51.352;6.412;2023-08-08T01:00:56;21.00;99.90
25536;DHT22;13431;51.352;6.412;2023-08-08T01:03:27;21.00;99.90
25536;DHT22;13431;51.352;6.412;2023-08-08T01:08:40;21.00;99.90
25536;DHT22;13431;51.352;6.412;2023-08-08T01:11:09;21.00;99.90
25536;DHT22;13431;51.352;6.412;2023-08-08T01:13:37;21.10;99.90
25536;DHT22;13431;51.352;6.412;2023-08-08T01:16:05;21.10;99.90
25536;DHT22;13431;51.352;6.412;2023-08-08T01:18:33;21.10;99.90
25536;DHT22;13431;51.352;6.412;2023-08-08T01:21:02;21.10;99.90
25536;DHT22;13431;51.352;6.412;2023-08-08T01:23:42;21.10;99.90
25536;DHT22;13431;51.352;6.412;2023-08-08T01:26:11;21.10;99.90
25536;DHT22;13431;51.352;6.412;2023-08-08T01:28:39;21.10;99.90
25536;DHT22;13431;51.352;6.412;2023-08-08T01:31:06;21.20;99.90
25536;DHT22;13431;51.352;6.412;2023-08-08T01:33:34;21.20;99.90
25536;DHT22;13431;51.352;6.412;2023-08-08T01:36:10;21.10;99.90
25536;DHT22;13431;51.352;6.412;2023-08-08T01:38:43;21.10;99.90
25536;DHT22;13431;51.352;6.412;2023-08-08T01:41:11;21.10;99.90
25536;DHT22;13431;51.352;6.412;2023-08-08T01:43:40;21.20;99.90
25536;DHT22;13431;51.352;6.412;2023-08-08T01:46:09;21.10;99.90
25536;DHT22;13431;51.352;6.412;2023-08-08T01:48:36;21.20;99.90
25536;DHT22;13431;51.352;6.412;2023-08-08T01:51:04;21.10;99.90
25536;DHT22;13431;51.352;6.412;2023-08-08T01:53:31;21.10;99.90
25536;DHT22;13431;51.352;6.412;2023-08-08T01:55:59;21.20;99.90
25536;DHT22;13431;51.352;6.412;2023-08-08T01:58:26;21.20;99.90
25536;DHT22;13431;51.352;6.412;2023-08-08T02:00:53;21.10;99.90
25536;DHT22;13431;51.352;6.412;2023-08-08T02:03:21;21.10;99.90
25536;DHT22;13431;51.352;6.412;2023-08-08T02:05:48;21.20;99.90
25536;DHT22;13431;51.352;6.412;2023-08-08T02:08:16;21.10;99.90
25536;DHT22;13431;51.352;6.412;2023-08-08T02:10:46;21.20;99.90
25536;DHT22;13431;51.352;6.412;2023-08-08T02:13:13;21.20;99.90
25536;DHT22;13431;51.352;6.412;2023-08-08T02:15:40;21.20;99.90
25536;DHT22;13431;51.352;6.412;2023-08-08T02:18:08;21.20;99.90
25536;DHT22;13431;51.352;6.412;2023-08-08T02:20:37;21.20;99.90
25536;DHT22;13431;51.352;6.412;2023-08-08T02:23:05;21.20;99.90
25536;DHT22;13431;51.352;6.412;2023-08-08T02:25:32;21.10;99.90
25536;DHT22;13431;51.352;6.412;2023-08-08T02:27:59;21.20;99.90
25536;DHT22;13431;51.352;6.412;2023-08-08T02:30:27;21.10;99.90
25536;DHT22;13431;51.352;6.412;2023-08-08T02:32:54;21.20;99.90
25536;DHT22;13431;51.352;6.412;2023-08-08T02:35:21;21.10;99.90
25536;DHT22;13431;51.352;6.412;2023-08-08T02:37:49;21.20;99.90
25536;DHT22;13431;51.352;6.412;2023-08-08T02:40:17;21.10;99.90
25536;DHT22;13431;51.352;6.412;2023-08-08T02:42:44;21.20;99.90
25536;DHT22;13431;51.352;6.412;2023-08-08T02:45:11;21.20;99.90
25536;DHT22;13431;51.352;6.412;2023-08-08T02:47:39;21.20;99.90
25536;DHT22;13431;51.352;6.412;2023-08-08T02:50:07;21.10;99.90
25536;DHT22;13431;51.352;6.412;2023-08-08T02:52:34;21.20;99.90
25536;DHT22;13431;51.352;6.412;2023-08-08T02:55:02;21.20;99.90
25536;DHT22;13431;51.352;6.412;2023-08-08T02:57:30;21.20;99.90
25536;DHT22;13431;51.352;6.412;2023-08-08T02:59:57;21.20;99.90
25536;DHT22;13431;51.352;6.412;2023-08-08T03:02:25;21.10;99.90
25536;DHT22;13431;51.352;6.412;2023-08-08T03:04:53;21.20;99.90
25536;DHT22;13431;51.352;6.412;2023-08-08T03:07:23;21.20;99.90
25536;DHT22;13431;51.352;6.412;2023-08-08T03:09:50;21.10;99.90
25536;DHT22;13431;51.352;6.412;2023-08-08T03:12:18;21.20;99.90
25536;DHT22;13431;51.352;6.412;2023-08-08T03:14:46;21.10;99.90
25536;DHT22;13431;51.352;6.412;2023-08-08T03:17:13;21.20;99.90
25536;DHT22;13431;51.352;6.412;2023-08-08T03:19:41;21.20;99.90
25536;DHT22;13431;51.352;6.412;2023-08-08T03:22:09;21.20;99.90
25536;DHT22;13431;51.352;6.412;2023-08-08T03:24:37;21.20;99.90
25536;DHT22;13431;51.352;6.412;2023-08-08T03:27:05;21.20;99.90
25536;DHT22;13431;51.352;6.412;2023-08-08T03:29:32;21.10;99.90
25536;DHT22;13431;51.352;6.412;2023-08-08T03:32:00;21.10;99.90
25536;DHT22;13431;51.352;6.412;2023-08-08T03:34:30;21.10;99.90
25536;DHT22;13431;51.352;6.412;2023-08-08T03:36:59;21.10;99.90
25536;DHT22;13431;51.352;6.412;2023-08-08T03:39:26;21.10;99.90
25536;DHT22;13431;51.352;6.412;2023-08-08T03:41:54;21.20;99.90
25536;DHT22;13431;51.352;6.412;2023-08-08T03:44:21;21.20;99.90
25536;DHT22;13431;51.352;6.412;2023-08-08T03:46:49;21.10;99.90
25536;DHT22;13431;51.352;6.412;2023-08-08T03:49:18;21.10;99.90
25536;DHT22;13431;51.352;6.412;2023-08-08T03:51:47;21.10;99.90
25536;DHT22;13431;51.352;6.412;2023-08-08T03:54:17;21.10;99.90
25536;DHT22;13431;51.352;6.412;2023-08-08T03:56:45;21.10;99.90
25536;DHT22;13431;51.352;6.412;2023-08-08T03:59:12;21.10;99.90
25536;DHT22;13431;51.352;6.412;2023-08-08T04:01:39;21.10;99.90
25536;DHT22;13431;51.352;6.412;2023-08-08T04:04:07;21.10;99.90
25536;DHT22;13431;51.352;6.412;2023-08-08T04:06:34;21.10;99.90
25536;DHT22;13431;51.352;6.412;2023-08-08T04:09:01;21.10;99.90
25536;DHT22;13431;51.352;6.412;2023-08-08T04:11:29;21.10;99.90
25536;DHT22;13431;51.352;6.412;2023-08-08T04:13:56;21.10;99.90
25536;DHT22;13431;51.352;6.412;2023-08-08T04:16:24;21.10;99.90
25536;DHT22;13431;51.352;6.412;2023-08-08T04:18:53;21.10;99.90
25536;DHT22;13431;51.352;6.412;2023-08-08T04:21:20;21.10;99.90
25536;DHT22;13431;51.352;6.412;2023-08-08T04:23:47;21.10;99.90
25536;DHT22;13431;51.352;6.412;2023-08-08T04:26:15;21.10;99.90
25536;DHT22;13431;51.352;6.412;2023-08-08T04:28:42;21.10;99.90
25536;DHT22;13431;51.352;6.412;2023-08-08T04:31:09;21.10;99.90
25536;DHT22;13431;51.352;6.412;2023-08-08T04:33:39;21.10;99.90
25536;DHT22;13431;51.352;6.412;2023-08-08T04:36:07;21.10;99.90
25536;DHT22;13431;51.352;6.412;2023-08-08T04:38:34;21.10;99.90
25536;DHT22;13431;51.352;6.412;2023-08-08T04:41:01;21.10;99.90
25536;DHT22;13431;51.352;6.412;2023-08-08T04:43:29;21.10;99.90
25536;DHT22;13431;51.352;6.412;2023-08-08T04:45:56;21.10;99.90
25536;DHT22;13431;51.352;6.412;2023-08-08T04:48:23;21.10;99.90
25536;DHT22;13431;51.352;6.412;2023-08-08T04:50:51;21.10;99.90
25536;DHT22;13431;51.352;6.412;2023-08-08T04:53:18;21.10;99.90
25536;DHT22;13431;51.352;6.412;2023-08-08T04:55:45;21.10;99.90
25536;DHT22;13431;51.352;6.412;2023-08-08T04:58:13;21.10;99.90
25536;DHT22;13431;51.352;6.412;2023-08-08T05:00:40;21.10;99.90
25536;DHT22;13431;51.352;6.412;2023-08-08T05:03:07;21.10;99.90
25536;DHT22;13431;51.352;6.412;2023-08-08T05:05:35;21.10;99.90
25536;DHT22;13431;51.352;6.412;2023-08-08T05:08:02;21.10;99.90
25536;DHT22;13431;51.352;6.412;2023-08-08T05:10:30;21.10;99.90
25536;DHT22;13431;51.352;6.412;2023-08-08T05:12:58;21.10;99.90
25536;DHT22;13431;51.352;6.412;2023-08-08T05:15:25;21.00;99.90
25536;DHT22;13431;51.352;6.412;2023-08-08T05:17:52;21.10;99.90
25536;DHT22;13431;51.352;6.412;2023-08-08T05:20:22;21.00;99.90
25536;DHT22;13431;51.352;6.412;2023-08-08T05:22:49;21.10;99.90
25536;DHT22;13431;51.352;6.412;2023-08-08T05:25:17;21.10;99.90
25536;DHT22;13431;51.352;6.412;2023-08-08T05:27:44;21.10;99.90
25536;DHT22;13431;51.352;6.412;2023-08-08T05:30:11;21.10;99.90
25536;DHT22;13431;51.352;6.412;2023-08-08T05:32:39;21.00;99.90
25536;DHT22;13431;51.352;6.412;2023-08-08T05:35:06;21.10;99.90
25536;DHT22;13431;51.352;6.412;2023-08-08T05:37:35;21.10;99.90
25536;DHT22;13431;51.352;6.412;2023-08-08T05:40:02;21.00;99.90
25536;DHT22;13431;51.352;6.412;2023-08-08T05:42:33;21.10;99.90
25536;DHT22;13431;51.352;6.412;2023-08-08T05:45:00;21.00;99.90
25536;DHT22;13431;51.352;6.412;2023-08-08T05:47:28;21.00;99.90
25536;DHT22;13431;51.352;6.412;2023-08-08T05:49:55;21.00;99.90
25536;DHT22;13431;51.352;6.412;2023-08-08T05:52:22;21.10;99.90
25536;DHT22;13431;51.352;6.412;2023-08-08T05:54:50;21.00;99.90
25536;DHT22;13431;51.352;6.412;2023-08-08T05:57:17;21.00;99.90
25536;DHT22;13431;51.352;6.412;2023-08-08T05:59:44;21.00;99.90
25536;DHT22;13431;51.352;6.412;2023-08-08T06:02:12;21.00;99.90
25536;DHT22;13431;51.352;6.412;2023-08-08T06:04:39;21.00;99.90
25536;DHT22;13431;51.352;6.412;2023-08-08T06:07:06;21.00;99.90
25536;DHT22;13431;51.352;6.412;2023-08-08T06:09:36;21.00;99.90
25536;DHT22;13431;51.352;6.412;2023-08-08T06:12:05;21.00;99.90
25536;DHT22;13431;51.352;6.412;2023-08-08T06:14:32;21.00;99.90
25536;DHT22;13431;51.352;6.412;2023-08-08T06:17:00;21.00;99.90
25536;DHT22;13431;51.352;6.412;2023-08-08T06:19:27;21.00;99.90
25536;DHT22;13431;51.352;6.412;2023-08-08T06:21:54;21.00;99.90
25536;DHT22;13431;51.352;6.412;2023-08-08T06:24:21;21.00;99.90
25536;DHT22;13431;51.352;6.412;2023-08-08T06:26:49;21.00;99.90
25536;DHT22;13431;51.352;6.412;2023-08-08T06:29:16;21.00;99.90
25536;DHT22;13431;51.352;6.412;2023-08-08T06:31:44;21.00;99.90
25536;DHT22;13431;51.352;6.412;2023-08-08T06:34:11;21.00;99.90
25536;DHT22;13431;51.352;6.412;2023-08-08T06:36:38;21.00;99.90
25536;DHT22;13431;51.352;6.412;2023-08-08T06:39:06;21.00;99.90
25536;DHT22;13431;51.352;6.412;2023-08-08T06:41:33;21.00;99.90
25536;DHT22;13431;51.352;6.412;2023-08-08T06:44:01;21.00;99.90
25536;DHT22;13431;51.352;6.412;2023-08-08T06:46:28;21.00;99.90
25536;DHT22;13431;51.352;6.412;2023-08-08T06:48:55;21.00;99.90
25536;DHT22;13431;51.352;6.412;2023-08-08T06:51:25;21.10;99.90
25536;DHT22;13431;51.352;6.412;2023-08-08T06:53:53;21.00;99.90
25536;DHT22;13431;51.352;6.412;2023-08-08T06:56:20;21.00;99.90
25536;DHT22;13431;51.352;6.412;2023-08-08T06:58:47;21.00;99.90
25536;DHT22;13431;51.352;6.412;2023-08-08T07:01:15;21.10;99.90
25536;DHT22;13431;51.352;6.412;2023-08-08T07:03:42;21.00;99.90
25536;DHT22;13431;51.352;6.412;2023-08-08T07:06:10;21.00;99.90
25536;DHT22;13431;51.352;6.412;2023-08-08T07:08:38;21.10;99.90
25536;DHT22;13431;51.352;6.412;2023-08-08T07:11:10;21.00;99.90
25536;DHT22;13431;51.352;6.412;2023-08-08T07:13:37;21.00;99.90
25536;DHT22;13431;51.352;6.412;2023-08-08T07:16:05;21.00;99.90
25536;DHT22;13431;51.352;6.412;2023-08-08T07:18:32;21.10;99.90
25536;DHT22;13431;51.352;6.412;2023-08-08T07:20:59;21.00;99.90
25536;DHT22;13431;51.352;6.412;2023-08-08T07:23:27;21.10;99.90
25536;DHT22;13431;51.352;6.412;2023-08-08T07:25:55;21.10;99.90
25536;DHT22;13431;51.352;6.412;2023-08-08T07:28:22;21.00;99.90
25536;DHT22;13431;51.352;6.412;2023-08-08T07:30:50;21.00;99.90
25536;DHT22;13431;51.352;6.412;2023-08-08T07:33:17;21.10;99.90
25536;DHT22;13431;51.352;6.412;2023-08-08T07:35:44;21.10;99.90
25536;DHT22;13431;51.352;6.412;2023-08-08T07:38:12;21.10;99.90
25536;DHT22;13431;51.352;6.412;2023-08-08T07:40:39;21.10;99.90
25536;DHT22;13431;51.352;6.412;2023-08-08T07:43:08;21.10;99.90
25536;DHT22;13431;51.352;6.412;2023-08-08T07:45:35;21.10;99.90
25536;DHT22;13431;51.352;6.412;2023-08-08T07:48:04;21.10;99.90
25536;DHT22;13431;51.352;6.412;2023-08-08T07:50:32;21.10;99.90
25536;DHT22;13431;51.352;6.412;2023-08-08T07:52:59;21.10;99.90
25536;DHT22;13431;51.352;6.412;2023-08-08T07:55:27;21.10;99.90
25536;DHT22;13431;51.352;6.412;2023-08-08T07:57:54;21.30;99.90
25536;DHT22;13431;51.352;6.412;2023-08-08T08:00:21;21.30;99.90
25536;DHT22;13431;51.352;6.412;2023-08-08T08:02:49;21.40;99.90
25536;DHT22;13431;51.352;6.412;2023-08-08T08:05:16;21.40;99.90
25536;DHT22;13431;51.352;6.412;2023-08-08T08:07:43;21.50;99.90
25536;DHT22;13431;51.352;6.412;2023-08-08T08:10:12;21.70;99.90
25536;DHT22;13431;51.352;6.412;2023-08-08T08:12:42;22.00;99.90
25536;DHT22;13431;51.352;6.412;2023-08-08T08:15:10;22.30;99.90
25536;DHT22;13431;51.352;6.412;2023-08-08T08:17:37;22.50;99.90
25536;DHT22;13431;51.352;6.412;2023-08-08T08:20:06;22.80;99.90
25536;DHT22;13431;51.352;6.412;2023-08-08T08:22:38;22.90;99.90
25536;DHT22;13431;51.352;6.412;2023-08-08T08:25:06;22.90;99.90
25536;DHT22;13431;51.352;6.412;2023-08-08T08:27:36;22.80;99.90
25536;DHT22;13431;51.352;6.412;2023-08-08T08:30:05;22.70;99.90
25536;DHT22;13431;51.352;6.412;2023-08-08T08:32:38;22.50;99.90
25536;DHT22;13431;51.352;6.412;2023-08-08T08:35:06;22.30;99.90
25536;DHT22;13431;51.352;6.412;2023-08-08T08:37:35;22.20;99.90
25536;DHT22;13431;51.352;6.412;2023-08-08T08:40:02;22.10;99.90
25536;DHT22;13431;51.352;6.412;2023-08-08T08:42:32;22.00;99.90
25536;DHT22;13431;51.352;6.412;2023-08-08T08:45:02;22.00;99.90
25536;DHT22;13431;51.352;6.412;2023-08-08T08:47:31;21.90;99.90
25536;DHT22;13431;51.352;6.412;2023-08-08T08:49:58;21.90;99.90
25536;DHT22;13431;51.352;6.412;2023-08-08T08:52:26;21.90;99.90
25536;DHT22;13431;51.352;6.412;2023-08-08T08:54:53;21.90;99.90
25536;DHT22;13431;51.352;6.412;2023-08-08T08:57:22;21.90;99.90
25536;DHT22;13431;51.352;6.412;2023-08-08T08:59:51;21.90;99.90
25536;DHT22;13431;51.352;6.412;2023-08-08T09:02:19;21.90;99.90
25536;DHT22;13431;51.352;6.412;2023-08-08T09:04:46;21.90;99.90
25536;DHT22;13431;51.352;6.412;2023-08-08T09:07:14;21.90;99.90
25536;DHT22;13431;51.352;6.412;2023-08-08T09:09:43;21.90;99.90
25536;DHT22;13431;51.352;6.412;2023-08-08T09:12:11;21.90;99.90
25536;DHT22;13431;51.352;6.412;2023-08-08T09:14:41;21.90;99.90
25536;DHT22;13431;51.352;6.412;2023-08-08T09:17:12;21.90;99.90
25536;DHT22;13431;51.352;6.412;2023-08-08T09:19:44;21.90;99.90
25536;DHT22;13431;51.352;6.412;2023-08-08T09:22:13;21.90;99.90
25536;DHT22;13431;51.352;6.412;2023-08-08T09:24:42;21.90;99.90
25536;DHT22;13431;51.352;6.412;2023-08-08T09:27:09;21.80;99.90
25536;DHT22;13431;51.352;6.412;2023-08-08T09:29:41;21.80;99.90
25536;DHT22;13431;51.352;6.412;2023-08-08T09:32:08;21.80;99.90
25536;DHT22;13431;51.352;6.412;2023-08-08T09:34:36;21.70;99.90
25536;DHT22;13431;51.352;6.412;2023-08-08T09:37:03;21.70;99.90
25536;DHT22;13431;51.352;6.412;2023-08-08T09:39:33;21.70;99.90
25536;DHT22;13431;51.352;6.412;2023-08-08T09:42:02;21.60;99.90
25536;DHT22;13431;51.352;6.412;2023-08-08T09:44:31;21.60;99.90
25536;DHT22;13431;51.352;6.412;2023-08-08T09:47:02;21.60;99.90
25536;DHT22;13431;51.352;6.412;2023-08-08T09:49:30;21.60;99.90
25536;DHT22;13431;51.352;6.412;2023-08-08T09:52:02;21.60;99.90
25536;DHT22;13431;51.352;6.412;2023-08-08T09:54:30;21.60;99.90
25536;DHT22;13431;51.352;6.412;2023-08-08T09:56:58;21.60;99.90
25536;DHT22;13431;51.352;6.412;2023-08-08T09:59:26;21.50;99.90
25536;DHT22;13431;51.352;6.412;2023-08-08T10:01:54;21.50;99.90
25536;DHT22;13431;51.352;6.412;2023-08-08T10:04:24;21.50;99.90
25536;DHT22;13431;51.352;6.412;2023-08-08T10:06:51;21.50;99.90
25536;DHT22;13431;51.352;6.412;2023-08-08T10:09:19;21.40;99.90
25536;DHT22;13431;51.352;6.412;2023-08-08T10:11:47;21.40;99.90
25536;DHT22;13431;51.352;6.412;2023-08-08T10:14:15;21.30;99.90
25536;DHT22;13431;51.352;6.412;2023-08-08T10:16:43;21.40;99.90
25536;DHT22;13431;51.352;6.412;2023-08-08T10:19:13;21.40;99.90
25536;DHT22;13431;51.352;6.412;2023-08-08T10:21:43;21.40;99.90
25536;DHT22;13431;51.352;6.412;2023-08-08T10:24:10;21.40;99.90
25536;DHT22;13431;51.352;6.412;2023-08-08T10:26:57;21.40;99.90
25536;DHT22;13431;51.352;6.412;2023-08-08T10:29:28;21.40;99.90
25536;DHT22;13431;51.352;6.412;2023-08-08T10:32:06;21.40;99.90
25536;DHT22;13431;51.352;6.412;2023-08-08T10:34:44;21.40;99.90
25536;DHT22;13431;51.352;6.412;2023-08-08T10:37:16;21.30;99.90
25536;DHT22;13431;51.352;6.412;2023-08-08T10:39:57;21.40;99.90
25536;DHT22;13431;51.352;6.412;2023-08-08T10:42:27;21.40;99.90
25536;DHT22;13431;51.352;6.412;2023-08-08T10:44:56;21.40;99.90
25536;DHT22;13431;51.352;6.412;2023-08-08T10:47:34;21.40;99.90
25536;DHT22;13431;51.352;6.412;2023-08-08T10:50:12;21.40;99.90
25536;DHT22;13431;51.352;6.412;2023-08-08T10:58:09;21.40;99.90
25536;DHT22;13431;51.352;6.412;2023-08-08T11:00:38;21.40;99.90
25536;DHT22;13431;51.352;6.412;2023-08-08T11:03:09;21.40;99.90
25536;DHT22;13431;51.352;6.412;2023-08-08T11:05:38;21.40;99.90
25536;DHT22;13431;51.352;6.412;2023-08-08T11:08:06;21.50;99.90
25536;DHT22;13431;51.352;6.412;2023-08-08T11:10:38;21.50;99.90
25536;DHT22;13431;51.352;6.412;2023-08-08T11:13:07;21.50;99.90
25536;DHT22;13431;51.352;6.412;2023-08-08T11:15:36;21.50;99.90
25536;DHT22;13431;51.352;6.412;2023-08-08T11:18:04;21.40;99.90
25536;DHT22;13431;51.352;6.412;2023-08-08T11:20:34;21.50;99.90
25536;DHT22;13431;51.352;6.412;2023-08-08T11:23:02;21.40;99.90
25536;DHT22;13431;51.352;6.412;2023-08-08T11:25:32;21.40;99.90
25536;DHT22;13431;51.352;6.412;2023-08-08T11:28:00;21.40;99.90
25536;DHT22;13431;51.352;6.412;2023-08-08T11:30:29;21.40;99.90
25536;DHT22;13431;51.352;6.412;2023-08-08T11:32:57;21.40;99.90
25536;DHT22;13431;51.352;6.412;2023-08-08T11:35:27;21.40;99.90
25536;DHT22;13431;51.352;6.412;2023-08-08T11:37:56;21.40;99.90
25536;DHT22;13431;51.352;6.412;2023-08-08T11:40:28;21.40;99.90
25536;DHT22;13431;51.352;6.412;2023-08-08T11:42:57;21.40;99.90
25536;DHT22;13431;51.352;6.412;2023-08-08T11:45:25;21.30;99.90
25536;DHT22;13431;51.352;6.412;2023-08-08T11:47:54;21.40;99.90
25536;DHT22;13431;51.352;6.412;2023-08-08T11:50:25;21.40;99.90
25536;DHT22;13431;51.352;6.412;2023-08-08T11:52:55;21.40;99.90
25536;DHT22;13431;51.352;6.412;2023-08-08T11:55:28;21.40;99.90
25536;DHT22;13431;51.352;6.412;2023-08-08T11:57:56;21.40;99.90
25536;DHT22;13431;51.352;6.412;2023-08-08T12:00:28;21.40;99.90
25536;DHT22;13431;51.352;6.412;2023-08-08T12:02:57;21.40;99.90
25536;DHT22;13431;51.352;6.412;2023-08-08T12:05:25;21.40;99.90
25536;DHT22;13431;51.352;6.412;2023-08-08T12:07:53;21.40;99.90
25536;DHT22;13431;51.352;6.412;2023-08-08T12:10:22;21.40;99.90
25536;DHT22;13431;51.352;6.412;2023-08-08T12:12:55;21.40;99.90
25536;DHT22;13431;51.352;6.412;2023-08-08T12:15:27;21.40;99.90
25536;DHT22;13431;51.352;6.412;2023-08-08T12:17:54;21.40;99.90
25536;DHT22;13431;51.352;6.412;2023-08-08T12:20:22;21.30;99.90
25536;DHT22;13431;51.352;6.412;2023-08-08T12:22:49;21.30;99.90
25536;DHT22;13431;51.352;6.412;2023-08-08T12:25:17;21.40;99.90
25536;DHT22;13431;51.352;6.412;2023-08-08T12:27:44;21.40;99.90
25536;DHT22;13431;51.352;6.412;2023-08-08T12:30:12;21.40;99.90
25536;DHT22;13431;51.352;6.412;2023-08-08T12:32:39;21.40;99.90
25536;DHT22;13431;51.352;6.412;2023-08-08T12:35:07;21.40;99.90
25536;DHT22;13431;51.352;6.412;2023-08-08T12:37:34;21.30;99.90
25536;DHT22;13431;51.352;6.412;2023-08-08T12:40:02;21.40;99.90
25536;DHT22;13431;51.352;6.412;2023-08-08T12:42:32;21.40;99.90
25536;DHT22;13431;51.352;6.412;2023-08-08T12:44:59;21.40;99.90
25536;DHT22;13431;51.352;6.412;2023-08-08T12:47:26;21.40;99.90
25536;DHT22;13431;51.352;6.412;2023-08-08T12:49:54;21.40;99.90
25536;DHT22;13431;51.352;6.412;2023-08-08T12:52:21;21.40;99.90
25536;DHT22;13431;51.352;6.412;2023-08-08T12:54:50;21.40;99.90
25536;DHT22;13431;51.352;6.412;2023-08-08T12:57:18;21.30;99.90
25536;DHT22;13431;51.352;6.412;2023-08-08T12:59:45;21.30;99.90
25536;DHT22;13431;51.352;6.412;2023-08-08T13:02:13;21.40;99.90
25536;DHT22;13431;51.352;6.412;2023-08-08T13:04:40;21.30;99.90
25536;DHT22;13431;51.352;6.412;2023-08-08T13:07:08;21.40;99.90
25536;DHT22;13431;51.352;6.412;2023-08-08T13:09:36;21.40;99.90
25536;DHT22;13431;51.352;6.412;2023-08-08T13:12:03;21.30;99.90
25536;DHT22;13431;51.352;6.412;2023-08-08T13:14:31;21.30;99.90
25536;DHT22;13431;51.352;6.412;2023-08-08T13:16:59;21.40;99.90
25536;DHT22;13431;51.352;6.412;2023-08-08T13:19:26;21.30;99.90
25536;DHT22;13431;51.352;6.412;2023-08-08T13:21:54;21.40;99.90
25536;DHT22;13431;51.352;6.412;2023-08-08T13:24:21;21.40;99.90
25536;DHT22;13431;51.352;6.412;2023-08-08T13:26:52;21.40;99.90
25536;DHT22;13431;51.352;6.412;2023-08-08T13:29:19;21.40;99.90
25536;DHT22;13431;51.352;6.412;2023-08-08T13:31:47;21.40;99.90
25536;DHT22;13431;51.352;6.412;2023-08-08T13:34:14;21.40;99.90
25536;DHT22;13431;51.352;6.412;2023-08-08T13:36:41;21.40;99.90
25536;DHT22;13431;51.352;6.412;2023-08-08T13:39:09;21.40;99.90
25536;DHT22;13431;51.352;6.412;2023-08-08T13:41:37;21.40;99.90
25536;DHT22;13431;51.352;6.412;2023-08-08T13:44:05;21.40;99.90
25536;DHT22;13431;51.352;6.412;2023-08-08T13:46:33;21.40;99.90
25536;DHT22;13431;51.352;6.412;2023-08-08T13:49:00;21.40;99.90
25536;DHT22;13431;51.352;6.412;2023-08-08T13:51:28;21.40;99.90
25536;DHT22;13431;51.352;6.412;2023-08-08T13:53:55;21.50;99.90
25536;DHT22;13431;51.352;6.412;2023-08-08T13:56:22;21.50;99.90
25536;DHT22;13431;51.352;6.412;2023-08-08T13:58:50;21.50;99.90
25536;DHT22;13431;51.352;6.412;2023-08-08T14:01:17;21.50;99.90
25536;DHT22;13431;51.352;6.412;2023-08-08T14:03:44;21.50;99.90
25536;DHT22;13431;51.352;6.412;2023-08-08T14:06:12;21.50;99.90
25536;DHT22;13431;51.352;6.412;2023-08-08T14:08:39;21.50;99.90
25536;DHT22;13431;51.352;6.412;2023-08-08T14:11:07;21.50;99.90
25536;DHT22;13431;51.352;6.412;2023-08-08T14:13:34;21.50;99.90
25536;DHT22;13431;51.352;6.412;2023-08-08T14:16:02;21.50;99.90
25536;DHT22;13431;51.352;6.412;2023-08-08T14:18:29;21.50;99.90
25536;DHT22;13431;51.352;6.412;2023-08-08T14:20:57;21.50;99.90
25536;DHT22;13431;51.352;6.412;2023-08-08T14:23:24;21.50;99.90
25536;DHT22;13431;51.352;6.412;2023-08-08T14:25:51;21.50;99.90
25536;DHT22;13431;51.352;6.412;2023-08-08T14:28:19;21.50;99.90
25536;DHT22;13431;51.352;6.412;2023-08-08T14:30:49;21.50;99.90
25536;DHT22;13431;51.352;6.412;2023-08-08T14:33:16;21.50;99.90
25536;DHT22;13431;51.352;6.412;2023-08-08T14:35:44;21.50;99.90
25536;DHT22;13431;51.352;6.412;2023-08-08T14:38:11;21.50;99.90
25536;DHT22;13431;51.352;6.412;2023-08-08T14:40:38;21.50;99.90
25536;DHT22;13431;51.352;6.412;2023-08-08T14:43:06;21.50;99.90
25536;DHT22;13431;51.352;6.412;2023-08-08T14:45:38;21.50;99.90
25536;DHT22;13431;51.352;6.412;2023-08-08T14:48:06;21.50;99.90
25536;DHT22;13431;51.352;6.412;2023-08-08T14:50:34;21.60;99.90
25536;DHT22;13431;51.352;6.412;2023-08-08T14:53:02;21.60;99.90
25536;DHT22;13431;51.352;6.412;2023-08-08T14:55:29;21.50;99.90
25536;DHT22;13431;51.352;6.412;2023-08-08T14:57:57;21.50;99.90
25536;DHT22;13431;51.352;6.412;2023-08-08T15:00:24;21.50;99.90
25536;DHT22;13431;51.352;6.412;2023-08-08T15:02:51;21.50;99.90
25536;DHT22;13431;51.352;6.412;2023-08-08T15:05:19;21.50;99.90
25536;DHT22;13431;51.352;6.412;2023-08-08T15:07:46;21.50;99.90
25536;DHT22;13431;51.352;6.412;2023-08-08T15:10:13;21.50;99.90
25536;DHT22;13431;51.352;6.412;2023-08-08T15:12:41;21.50;99.90
25536;DHT22;13431;51.352;6.412;2023-08-08T15:15:08;21.50;99.90
25536;DHT22;13431;51.352;6.412;2023-08-08T15:17:36;21.50;99.90
25536;DHT22;13431;51.352;6.412;2023-08-08T15:20:04;21.50;99.90
25536;DHT22;13431;51.352;6.412;2023-08-08T15:22:31;21.50;99.90
25536;DHT22;13431;51.352;6.412;2023-08-08T15:24:59;21.50;99.90
25536;DHT22;13431;51.352;6.412;2023-08-08T15:27:26;21.50;99.90
25536;DHT22;13431;51.352;6.412;2023-08-08T15:29:53;21.50;99.90
25536;DHT22;13431;51.352;6.412;2023-08-08T15:32:21;21.50;99.90
25536;DHT22;13431;51.352;6.412;2023-08-08T15:34:48;21.50;99.90
25536;DHT22;13431;51.352;6.412;2023-08-08T15:37:15;21.50;99.90
25536;DHT22;13431;51.352;6.412;2023-08-08T15:39:43;21.50;99.90
25536;DHT22;13431;51.352;6.412;2023-08-08T15:42:10;21.50;99.90
25536;DHT22;13431;51.352;6.412;2023-08-08T15:44:37;21.50;99.90